Time;durP1;ratioP1;P1;durP2;ratioP2;P2;SDS_P1;SDS_P2;PMS_P1;PMS_P2;Temp;Humidity;BMP_temperature;BMP_pressure;BME280_temperature;BME280_humidity;BME280_pressure;Samples;Min_cycle;Max_cycle;Signal;HPM_P1;HPM_P2
2022/11/11 00:01:06;;;;;;;8.00;3.08;;;;;;;10.68;100.00;101983.63;4858415;29;20628;-85
2022/11/11 00:03:33;;;;;;;5.70;3.58;;;;;;;10.64;100.00;101980.97;4870764;29;20052;-83
2022/11/11 00:06:02;;;;;;;8.18;3.60;;;;;;;10.62;100.00;101991.53;4850220;29;20048;-82
2022/11/11 00:08:29;;;;;;;6.43;3.15;;;;;;;10.62;100.00;102004.75;4879970;29;20045;-85
2022/11/11 00:11:00;;;;;;;9.73;4.22;;;;;;;10.50;100.00;102002.06;4854323;29;20048;-84
2022/11/11 00:13:28;;;;;;;4.32;2.92;;;;;;;10.42;100.00;102010.03;4850233;29;20059;-84
2022/11/11 00:15:55;;;;;;;9.13;3.35;;;;;;;10.40;100.00;102005.59;4884567;29;20131;-84
2022/11/11 00:26:45;;;;;;;11.32;3.45;;;;;;;10.20;100.00;102009.94;4865340;29;20502;-83
2022/11/11 00:29:12;;;;;;;7.20;3.50;;;;;;;10.15;100.00;102017.81;4867605;29;20040;-85
2022/11/11 00:32:21;;;;;;;7.00;3.45;;;;;;;10.04;100.00;102009.88;4872959;29;20044;-84
2022/11/11 00:34:26;;;;;;;6.65;3.00;;;;;;;9.97;100.00;101999.28;4881142;29;20048;-83
2022/11/11 00:36:52;;;;;;;6.15;3.42;;;;;;;9.95;100.00;101998.41;4867949;29;20041;-84
2022/11/11 00:39:19;;;;;;;8.68;3.72;;;;;;;9.92;100.00;101996.66;4880457;29;20124;-82
2022/11/11 00:41:46;;;;;;;10.45;5.55;;;;;;;9.91;100.00;101992.22;4868571;29;20044;-82
2022/11/11 00:44:12;;;;;;;11.32;5.22;;;;;;;9.84;100.00;101998.38;4844036;29;20040;-84
2022/11/11 00:52:10;;;;;;;24.30;10.20;;;;;;;9.81;100.00;101985.16;4867425;29;20044;-83
2022/11/11 00:54:36;;;;;;;12.32;7.57;;;;;;;9.76;100.00;101979.88;4869194;29;20072;-85
2022/11/11 00:57:03;;;;;;;16.50;7.45;;;;;;;9.84;100.00;101986.06;4862022;29;20498;-83
2022/11/11 00:59:29;;;;;;;9.93;4.43;;;;;;;9.86;100.00;101972.84;4845830;29;20057;-81
2022/11/11 01:01:56;;;;;;;16.80;6.85;;;;;;;9.85;100.00;101985.19;4879469;29;20037;-83
2022/11/11 01:04:23;;;;;;;10.02;4.97;;;;;;;9.73;100.00;101981.59;4864799;29;20044;-84
2022/11/11 01:06:50;;;;;;;6.85;4.07;;;;;;;9.68;100.00;101968.41;4836975;29;20106;-81
2022/11/11 01:09:17;;;;;;;6.47;3.40;;;;;;;9.80;100.00;101975.47;4861718;29;20041;-84
2022/11/11 01:11:43;;;;;;;7.38;3.10;;;;;;;9.71;100.00;101975.44;4863374;29;20650;-82
2022/11/11 01:14:10;;;;;;;7.90;3.25;;;;;;;9.75;100.00;101966.63;4846604;29;20407;-82
2022/11/11 01:16:37;;;;;;;8.35;3.03;;;;;;;9.76;100.00;101961.41;4850427;29;20048;-84
2022/11/11 01:19:03;;;;;;;6.28;2.92;;;;;;;9.57;100.00;101963.06;4846405;29;20053;-84
2022/11/11 01:21:30;;;;;;;6.85;2.97;;;;;;;9.59;100.00;101969.25;4858734;23;20144;-84
2022/11/11 01:23:57;;;;;;;10.45;2.90;;;;;;;9.67;100.00;101976.28;4861416;29;20052;-85
2022/11/11 01:26:26;;;;;;;6.05;3.15;;;;;;;9.71;100.00;101978.97;4854382;29;20554;-85
2022/11/11 01:28:57;;;;;;;11.35;3.40;;;;;;;9.62;100.00;101983.31;4862975;29;20071;-84
2022/11/11 01:31:26;;;;;;;6.20;3.00;;;;;;;9.55;100.00;101988.56;4859921;29;20069;-84
2022/11/11 01:33:53;;;;;;;7.80;3.38;;;;;;;9.48;100.00;101992.03;4848894;29;20041;-85
2022/11/11 01:36:26;;;;;;;4.75;3.00;;;;;;;9.50;100.00;101985.03;4844730;29;20419;-85
2022/11/11 01:38:54;;;;;;;9.25;3.00;;;;;;;9.47;100.00;101974.44;4839450;29;20523;-84
2022/11/11 01:41:35;;;;;;;6.15;3.38;;;;;;;9.55;100.00;101985.03;4848231;29;20116;-84
2022/11/11 01:44:17;;;;;;;9.10;2.70;;;;;;;9.50;100.00;101979.75;4865443;29;20052;-84
2022/11/11 01:46:48;;;;;;;7.30;3.17;;;;;;;9.39;100.00;101985.84;4848735;29;20093;-85
2022/11/11 01:49:22;;;;;;;10.43;3.30;;;;;;;9.42;100.00;101989.38;4878659;29;20033;-84
2022/11/11 01:52:16;;;;;;;9.20;3.40;;;;;;;9.41;100.00;102000.78;4833514;29;20049;-85
2022/11/11 01:54:59;;;;;;;5.07;2.40;;;;;;;9.24;100.00;102005.94;4880421;29;20506;-84
2022/11/11 01:57:48;;;;;;;7.88;2.60;;;;;;;9.30;100.00;102013.91;4847373;29;20045;-84
2022/11/11 02:00:17;;;;;;;6.88;2.63;;;;;;;9.23;100.00;101993.66;4848303;29;20135;-84
2022/11/11 02:02:47;;;;;;;7.35;3.17;;;;;;;9.26;100.00;102003.34;4845768;29;20041;-85
2022/11/11 02:08:04;;;;;;;5.53;3.17;;;;;;;9.16;100.00;102031.38;4864053;29;20053;-85
2022/11/11 02:10:32;;;;;;;5.22;2.45;;;;;;;9.15;100.00;102040.16;4816988;29;20046;-85
2022/11/11 02:15:44;;;;;;;7.05;3.00;;;;;;;9.05;100.00;102032.19;4838676;29;20487;-84
2022/11/11 02:18:11;;;;;;;5.00;2.90;;;;;;;9.02;100.00;102023.38;4849318;29;20407;-84
2022/11/11 02:20:40;;;;;;;6.97;3.35;;;;;;;9.02;100.00;102017.25;4830381;29;20049;-85
2022/11/11 02:23:10;;;;;;;5.90;2.50;;;;;;;9.01;100.00;102015.47;4822303;29;20541;-85
2022/11/11 02:25:39;;;;;;;7.57;3.45;;;;;;;8.99;100.00;102025.97;4849705;29;20126;-84
2022/11/11 02:28:06;;;;;;;10.57;3.42;;;;;;;8.97;100.00;102027.72;4855836;29;20096;-85
2022/11/11 02:30:33;;;;;;;6.35;3.47;;;;;;;9.03;100.00;102019.88;4860424;29;20044;-85
2022/11/11 02:33:00;;;;;;;9.68;2.40;;;;;;;8.95;100.00;102013.66;4859974;29;20068;-85
2022/11/11 02:35:33;;;;;;;5.93;2.80;;;;;;;8.95;100.00;102012.78;4854292;29;20049;-85
2022/11/11 02:38:06;;;;;;;6.20;2.92;;;;;;;9.02;100.00;102014.59;4855534;29;20108;-85
2022/11/11 02:43:25;;;;;;;7.15;2.90;;;;;;;8.89;100.00;102025.91;4869418;29;20069;-85
2022/11/11 02:45:52;;;;;;;6.43;2.63;;;;;;;8.98;100.00;102026.84;4853982;29;20216;-85
2022/11/11 02:48:19;;;;;;;6.68;2.70;;;;;;;8.92;100.00;102020.69;4854915;29;20056;-85
2022/11/11 02:50:45;;;;;;;4.55;2.92;;;;;;;8.88;100.00;102021.50;4853998;29;20153;-84
2022/11/11 02:53:12;;;;;;;7.75;3.30;;;;;;;8.81;100.00;102012.66;4853208;29;20064;-85
2022/11/11 02:55:39;;;;;;;8.65;2.70;;;;;;;8.81;100.00;102010.03;4851672;29;20049;-84
2022/11/11 02:58:06;;;;;;;5.20;3.10;;;;;;;8.84;100.00;102003.91;4864142;29;20105;-85
2022/11/11 03:00:33;;;;;;;5.55;2.92;;;;;;;8.76;100.00;102001.22;4819029;29;20072;-84
2022/11/11 03:02:59;;;;;;;6.28;3.55;;;;;;;8.74;100.00;101989.75;4864111;29;20589;-83
2022/11/11 03:05:26;;;;;;;5.43;2.92;;;;;;;8.76;100.00;101992.44;4835221;29;20076;-85
2022/11/11 03:07:53;;;;;;;4.78;2.55;;;;;;;8.69;100.00;101986.22;4848862;29;20107;-85
2022/11/11 03:10:20;;;;;;;6.40;2.95;;;;;;;8.66;100.00;101987.09;4848978;29;20073;-83
2022/11/11 03:12:46;;;;;;;6.55;3.03;;;;;;;8.70;100.00;101980.09;4848987;29;20052;-85
2022/11/11 03:15:13;;;;;;;11.25;3.42;;;;;;;8.70;100.00;101973.06;4842913;29;20042;-85
2022/11/11 03:17:40;;;;;;;6.28;3.55;;;;;;;8.66;100.00;101981.81;4832164;29;20061;-84
2022/11/11 03:23:05;;;;;;;6.53;2.75;;;;;;;8.77;100.00;101960.81;4852173;29;20048;-84
2022/11/11 03:25:38;;;;;;;5.50;3.13;;;;;;;8.66;100.00;101960.75;4852273;29;20041;-84
2022/11/11 03:28:07;;;;;;;8.20;3.70;;;;;;;8.83;100.00;101958.25;4841271;29;20470;-85
2022/11/11 03:30:34;;;;;;;4.32;2.47;;;;;;;8.67;100.00;101967.78;4849352;29;20052;-85
2022/11/11 03:33:01;;;;;;;8.32;2.85;;;;;;;8.78;100.00;101962.59;4835341;29;20490;-84
2022/11/11 03:35:28;;;;;;;12.43;4.07;;;;;;;8.97;100.00;101958.31;4835384;29;20041;-84
2022/11/11 03:40:45;;;;;;;10.13;3.42;;;;;;;9.03;100.00;101972.44;4863849;29;20045;-85
2022/11/11 03:43:13;;;;;;;5.35;2.92;;;;;;;8.85;100.00;101976.69;4837658;29;20097;-86
2022/11/11 03:45:40;;;;;;;7.20;3.40;;;;;;;9.02;100.00;101977.69;4850878;29;20068;-85
2022/11/11 03:48:07;;;;;;;6.70;2.65;;;;;;;9.04;100.00;101975.94;4825581;29;20045;-84
2022/11/11 03:50:34;;;;;;;7.57;2.70;;;;;;;8.99;100.00;101978.53;4828237;29;20074;-84
2022/11/11 03:53:01;;;;;;;10.05;2.75;;;;;;;8.93;100.00;101975.88;4834859;29;20041;-84
2022/11/11 03:55:28;;;;;;;10.43;2.90;;;;;;;8.81;100.00;101970.50;4848249;29;20041;-84
2022/11/11 03:57:55;;;;;;;10.57;3.17;;;;;;;8.97;100.00;101969.75;4861225;29;20421;-84
2022/11/11 04:00:23;;;;;;;8.82;2.85;;;;;;;9.00;100.00;101967.16;4846274;29;20045;-85
2022/11/11 04:11:11;;;;;;;7.13;3.15;;;;;;;8.93;100.00;101975.88;4863506;29;20156;-86
2022/11/11 04:16:25;;;;;;;7.82;3.20;;;;;;;8.89;100.00;101987.25;4846183;29;20101;-86
2022/11/11 04:21:57;;;;;;;6.65;2.80;;;;;;;8.99;100.00;101998.75;4833755;29;20041;-86
2022/11/11 04:27:11;;;;;;;10.53;3.13;;;;;;;9.03;100.00;102014.59;4817783;29;20054;-86
2022/11/11 04:29:38;;;;;;;8.25;3.00;;;;;;;9.08;100.00;102006.75;4838160;29;20427;-85
2022/11/11 04:35:00;;;;;;;6.53;2.97;;;;;;;8.99;100.00;102018.06;4862581;29;20057;-87
2022/11/11 04:37:30;;;;;;;7.55;3.88;;;;;;;9.00;100.00;102014.59;4865336;29;20044;-86
2022/11/11 04:42:42;;;;;;;6.95;2.88;;;;;;;9.12;100.00;102003.25;4859233;29;20567;-86
2022/11/11 04:45:30;;;;;;;5.60;2.80;;;;;;;9.06;100.00;102010.22;4834365;29;20045;-88
2022/11/11 04:48:04;;;;;;;4.93;2.92;;;;;;;9.06;100.00;101997.03;4854009;29;20094;-87
2022/11/11 04:50:33;;;;;;;6.80;3.60;;;;;;;9.09;100.00;101999.72;4828518;29;20388;-87
2022/11/11 04:53:02;;;;;;;4.97;2.90;;;;;;;9.10;100.00;101998.84;4845528;29;20056;-87
2022/11/11 04:58:15;;;;;;;7.32;2.80;;;;;;;9.07;100.00;102009.34;4858495;29;20064;-87
2022/11/11 05:00:42;;;;;;;8.50;2.90;;;;;;;8.93;100.00;102012.78;4846219;29;20062;-87
2022/11/11 05:03:17;;;;;;;5.15;3.17;;;;;;;8.87;100.00;102015.34;4864839;29;20064;-86
2022/11/11 05:09:01;;;;;;;5.32;2.63;;;;;;;8.99;100.00;102033.00;4861500;29;20051;-85
2022/11/11 05:11:30;;;;;;;6.15;2.88;;;;;;;8.95;100.00;102024.22;4848104;29;20415;-86
2022/11/11 05:22:33;;;;;;;6.15;2.97;;;;;;;9.06;100.00;102045.38;4842571;29;20050;-86
2022/11/11 05:27:45;;;;;;;6.82;2.53;;;;;;;8.89;100.00;102039.09;4856147;29;20042;-86
2022/11/11 05:30:13;;;;;;;6.93;3.30;;;;;;;8.96;100.00;102030.38;4851934;29;20052;-86
2022/11/11 05:32:40;;;;;;;5.32;2.63;;;;;;;8.93;100.00;102033.88;4842224;29;20366;-86
2022/11/11 05:35:08;;;;;;;4.07;2.42;;;;;;;8.91;100.00;102022.44;4845343;29;20129;-87
2022/11/11 05:37:35;;;;;;;5.95;2.63;;;;;;;9.08;100.00;102016.38;4840421;29;20048;-86
2022/11/11 05:40:02;;;;;;;6.03;2.85;;;;;;;9.01;100.00;102021.63;4846162;29;20045;-87
2022/11/11 05:42:28;;;;;;;4.75;3.17;;;;;;;8.95;100.00;102013.66;4846676;29;20575;-86
2022/11/11 05:44:55;;;;;;;4.45;2.53;;;;;;;9.04;100.00;102020.75;4845505;29;20038;-86
2022/11/11 05:47:22;;;;;;;8.27;2.95;;;;;;;9.00;100.00;102021.63;4845304;29;20052;-85
2022/11/11 05:49:48;;;;;;;4.72;2.47;;;;;;;8.90;100.00;102023.28;4839052;29;20456;-87
2022/11/11 05:52:16;;;;;;;4.80;2.40;;;;;;;8.98;100.00;102025.97;4829033;29;20474;-86
2022/11/11 05:54:43;;;;;;;6.47;2.65;;;;;;;8.97;100.00;102026.84;4827364;29;20057;-87
2022/11/11 05:57:09;;;;;;;5.63;2.50;;;;;;;9.05;100.00;102024.28;4848915;29;20040;-85
2022/11/11 05:59:36;;;;;;;5.38;3.28;;;;;;;9.02;100.00;102022.50;4834568;29;20578;-86
2022/11/11 06:02:03;;;;;;;5.47;3.40;;;;;;;9.13;100.00;102034.00;4855975;29;20041;-87
2022/11/11 06:04:30;;;;;;;5.00;2.63;;;;;;;9.10;100.00;102030.47;4843562;29;20106;-87
2022/11/11 06:06:57;;;;;;;5.10;2.88;;;;;;;9.19;100.00;102030.53;4842928;29;20587;-86
2022/11/11 06:09:24;;;;;;;5.88;2.78;;;;;;;9.12;100.00;102034.88;4859294;29;20053;-87
2022/11/11 06:11:50;;;;;;;4.07;2.53;;;;;;;9.05;100.00;102037.47;4844274;29;20041;-86
2022/11/11 06:14:17;;;;;;;4.88;2.50;;;;;;;9.14;100.00;102038.41;4856226;29;20045;-87
2022/11/11 06:16:44;;;;;;;3.75;2.45;;;;;;;9.19;100.00;102051.63;4828400;29;20060;-85
2022/11/11 06:19:11;;;;;;;4.75;2.45;;;;;;;9.11;100.00;102043.66;4866117;29;20041;-86
2022/11/11 06:21:55;;;;;;;5.85;2.50;;;;;;;9.10;100.00;102048.94;4839416;29;20045;-86
2022/11/11 06:24:22;;;;;;;4.75;2.35;;;;;;;9.15;100.00;102047.19;4847271;29;20045;-88
2022/11/11 06:26:53;;;;;;;4.55;2.83;;;;;;;9.12;100.00;102045.44;4848545;29;20063;-88
2022/11/11 06:29:20;;;;;;;6.57;3.50;;;;;;;9.15;100.00;102039.28;4853089;29;20077;-87
2022/11/11 06:31:47;;;;;;;6.10;2.60;;;;;;;9.21;100.00;102037.59;4844898;29;20041;-88
2022/11/11 06:34:13;;;;;;;5.85;3.28;;;;;;;9.34;100.00;102037.69;4849348;29;20096;-87
2022/11/11 06:36:40;;;;;;;7.07;2.85;;;;;;;9.38;100.00;102045.63;4827858;29;20071;-87
2022/11/11 06:39:06;;;;;;;7.90;2.95;;;;;;;9.40;100.00;102040.34;4835988;29;20044;-86
2022/11/11 06:41:33;;;;;;;6.38;3.28;;;;;;;9.43;100.00;102038.63;4835088;29;20045;-86
2022/11/11 06:44:00;;;;;;;5.10;3.00;;;;;;;9.41;100.00;102036.81;4846802;29;20415;-86
2022/11/11 06:46:26;;;;;;;8.70;3.22;;;;;;;9.38;100.00;102021.88;4854610;29;20068;-86
2022/11/11 06:48:54;;;;;;;7.20;2.90;;;;;;;9.44;100.00;102032.47;4862539;29;20093;-83
2022/11/11 06:51:21;;;;;;;7.45;3.15;;;;;;;9.47;100.00;102021.94;4829234;29;20044;-85
2022/11/11 06:53:48;;;;;;;5.30;3.65;;;;;;;9.44;100.00;102036.88;4825646;29;20042;-85
2022/11/11 06:56:15;;;;;;;5.65;2.80;;;;;;;9.47;100.00;102037.75;4830833;29;20049;-86
2022/11/11 06:58:41;;;;;;;6.85;3.20;;;;;;;9.48;100.00;102044.78;4863292;29;20049;-85
2022/11/11 07:01:08;;;;;;;8.68;3.95;;;;;;;9.48;100.00;102050.06;4834587;29;20097;-84
2022/11/11 07:03:35;;;;;;;4.80;2.95;;;;;;;9.49;100.00;102043.91;4846666;29;20041;-83
2022/11/11 07:06:05;;;;;;;6.20;2.67;;;;;;;9.61;100.00;102050.16;4844639;29;20058;-84
2022/11/11 07:08:32;;;;;;;7.03;3.42;;;;;;;9.57;100.00;102047.47;4876902;29;20588;-85
2022/11/11 07:10:59;;;;;;;6.65;4.28;;;;;;;9.56;100.00;102045.72;4862085;29;20043;-85
2022/11/11 07:13:36;;;;;;;4.80;2.67;;;;;;;9.58;100.00;102048.38;4838916;29;20041;-86
2022/11/11 07:16:03;;;;;;;5.43;2.80;;;;;;;9.53;100.00;102044.84;4843104;29;20503;-85
2022/11/11 07:18:30;;;;;;;4.72;3.00;;;;;;;9.59;100.00;102043.13;4827285;29;20052;-84
2022/11/11 07:20:57;;;;;;;6.43;2.70;;;;;;;9.66;100.00;102049.28;4911006;23;20046;-84
2022/11/11 07:23:23;;;;;;;5.97;3.10;;;;;;;9.70;100.00;102055.47;4859133;29;20072;-84
2022/11/11 07:25:50;;;;;;;6.20;3.03;;;;;;;9.65;100.00;102059.84;4859409;29;20049;-84
2022/11/11 07:28:16;;;;;;;4.53;2.80;;;;;;;9.72;100.00;102066.91;4830259;29;20053;-84
2022/11/11 07:30:43;;;;;;;6.00;2.88;;;;;;;9.83;100.00;102059.94;4863722;29;20044;-84
2022/11/11 07:33:10;;;;;;;6.68;3.20;;;;;;;9.83;100.00;102052.00;4852210;29;20037;-84
2022/11/11 07:35:36;;;;;;;5.78;2.92;;;;;;;9.82;100.00;102050.25;4858942;29;20712;-84
2022/11/11 07:38:03;;;;;;;8.48;3.55;;;;;;;9.82;100.00;102066.09;4826317;29;20472;-84
2022/11/11 07:40:30;;;;;;;6.25;2.83;;;;;;;9.85;100.00;102076.69;4842791;29;20041;-85
2022/11/11 07:42:56;;;;;;;5.25;3.15;;;;;;;9.90;100.00;102074.06;4844673;29;20097;-84
2022/11/11 07:45:23;;;;;;;4.32;2.92;;;;;;;9.95;100.00;102078.50;4850125;29;20056;-84
2022/11/11 07:47:50;;;;;;;5.38;2.90;;;;;;;10.00;100.00;102084.66;4849852;29;20049;-84
2022/11/11 07:50:16;;;;;;;5.90;3.33;;;;;;;9.97;100.00;102097.84;4841829;29;20049;-84
2022/11/11 07:52:47;;;;;;;7.25;3.42;;;;;;;10.07;100.00;102080.28;4870013;29;20041;-84
2022/11/11 07:55:14;;;;;;;8.52;3.45;;;;;;;10.08;100.00;102085.56;4858353;29;20097;-84
2022/11/11 07:57:41;;;;;;;6.93;3.10;;;;;;;10.14;100.00;102082.09;4863387;29;20046;-84
2022/11/11 08:00:08;;;;;;;5.85;3.00;;;;;;;10.16;100.00;102091.78;4872809;29;20041;-84
2022/11/11 08:02:35;;;;;;;7.50;3.53;;;;;;;10.23;100.00;102098.00;4844420;29;20053;-83
2022/11/11 08:05:01;;;;;;;6.45;3.78;;;;;;;10.26;100.00;102094.50;4855048;29;20093;-83
2022/11/11 08:07:28;;;;;;;5.50;3.50;;;;;;;10.28;100.00;102098.03;4842717;29;20087;-83
2022/11/11 08:09:55;;;;;;;7.68;3.13;;;;;;;10.32;100.00;102098.03;4884748;29;20047;-83
2022/11/11 08:15:07;;;;;;;5.45;2.60;;;;;;;10.28;100.00;102122.69;4873170;29;20044;-82
2022/11/11 08:17:40;;;;;;;5.65;2.70;;;;;;;10.36;100.00;102130.66;4835954;29;20072;-82
2022/11/11 08:20:08;;;;;;;5.78;3.13;;;;;;;10.37;100.00;102125.34;4846661;29;20131;-82
2022/11/11 08:22:36;;;;;;;6.70;3.83;;;;;;;10.43;100.00;102135.06;4846427;29;20041;-82
2022/11/11 08:25:05;;;;;;;5.40;3.10;;;;;;;10.39;100.00;102128.88;4844056;29;20052;-83
2022/11/11 08:27:33;;;;;;;7.43;3.47;;;;;;;10.55;100.00;102134.22;4862553;29;20081;-82
2022/11/11 08:30:00;;;;;;;6.82;2.72;;;;;;;10.49;100.00;102127.16;4858870;29;20049;-82
2022/11/11 08:32:27;;;;;;;5.38;2.58;;;;;;;10.52;100.00;102123.66;4893328;29;20487;-82
2022/11/11 08:34:53;;;;;;;6.72;2.90;;;;;;;10.48;100.00;102132.44;4844600;29;20045;-82
2022/11/11 08:37:20;;;;;;;4.15;2.30;;;;;;;10.61;100.00;102139.53;4849483;29;20040;-82
2022/11/11 08:39:47;;;;;;;6.10;2.72;;;;;;;10.46;100.00;102144.75;4854687;29;21495;-82
2022/11/11 08:42:15;;;;;;;6.18;2.80;;;;;;;10.53;100.00;102141.28;4839365;29;20100;-83
2022/11/11 08:44:41;;;;;;;5.10;2.75;;;;;;;10.63;100.00;102143.06;4831390;29;20108;-83
2022/11/11 08:47:08;;;;;;;5.03;2.30;;;;;;;10.54;100.00;102151.84;4847322;29;20046;-83
2022/11/11 08:49:35;;;;;;;6.38;3.25;;;;;;;10.59;100.00;102160.66;4861783;29;20065;-83
2022/11/11 08:52:01;;;;;;;6.28;2.35;;;;;;;10.60;100.00;102159.81;4869128;29;20038;-83
2022/11/11 08:54:28;;;;;;;7.90;2.40;;;;;;;10.60;100.00;102165.09;4837096;29;20059;-82
2022/11/11 08:56:55;;;;;;;4.07;2.38;;;;;;;10.69;100.00;102174.81;4853850;29;20041;-82
2022/11/11 08:59:21;;;;;;;3.85;2.05;;;;;;;10.71;99.51;102162.47;4850975;29;20037;-83
2022/11/11 09:01:48;;;;;;;6.55;2.42;;;;;;;10.71;99.92;102173.03;4863709;29;20391;-82
2022/11/11 09:04:16;;;;;;;4.85;2.20;;;;;;;10.77;99.65;102174.84;4861089;29;20395;-83
2022/11/11 09:07:02;;;;;;;7.03;2.60;;;;;;;10.86;98.79;102188.06;4858755;29;20050;-82
2022/11/11 09:09:29;;;;;;;5.45;2.00;;;;;;;10.82;97.69;102183.63;4827719;29;20045;-82
2022/11/11 09:11:56;;;;;;;10.35;2.80;;;;;;;10.88;97.89;102179.25;4844861;29;20049;-83
2022/11/11 09:14:22;;;;;;;5.22;2.08;;;;;;;10.89;97.21;102181.03;4846235;29;20045;-83
2022/11/11 09:16:49;;;;;;;4.32;2.45;;;;;;;10.83;98.96;102177.47;4886319;29;20040;-83
2022/11/11 09:19:15;;;;;;;5.50;2.25;;;;;;;10.91;98.03;102186.31;4837941;29;20124;-83
2022/11/11 09:21:42;;;;;;;3.42;1.92;;;;;;;10.97;96.89;102189.84;4864066;29;20486;-83
2022/11/11 09:24:09;;;;;;;5.28;2.55;;;;;;;11.04;96.39;102192.53;4845662;29;20120;-82
2022/11/11 09:26:35;;;;;;;4.28;2.28;;;;;;;11.06;96.88;102191.63;4861058;29;20070;-81
2022/11/11 09:29:02;;;;;;;6.05;2.10;;;;;;;11.04;96.31;102174.00;4836740;29;20045;-83
2022/11/11 09:31:29;;;;;;;4.68;2.30;;;;;;;11.08;97.48;102181.94;4875416;29;20045;-82
2022/11/11 09:34:09;;;;;;;3.83;2.10;;;;;;;11.12;97.79;102188.13;4837041;29;20045;-83
2022/11/11 09:36:36;;;;;;;10.95;3.13;;;;;;;11.19;97.38;102201.38;4844319;29;20045;-81
2022/11/11 09:39:03;;;;;;;5.80;2.70;;;;;;;11.13;96.07;102198.72;4853316;29;20050;-82
2022/11/11 09:41:40;;;;;;;5.82;3.20;;;;;;;11.24;96.38;102202.25;4842234;29;20037;-82
2022/11/11 09:44:19;;;;;;;6.90;3.55;;;;;;;11.36;98.44;102211.97;4842071;29;20615;-82
2022/11/11 09:46:54;;;;;;;7.57;2.78;;;;;;;11.36;96.23;102206.69;4837859;29;20049;-82
2022/11/11 09:50:00;;;;;;;3.47;2.20;;;;;;;11.30;95.60;102208.44;4843908;29;20045;-82
2022/11/11 09:52:28;;;;;;;;;;;;;;;11.32;93.91;102210.19;4848299;29;20071;-82
2022/11/11 09:55:02;;;;;;;4.80;3.10;;;;;;;11.35;94.77;102206.66;4858357;29;19923;-82
2022/11/11 09:57:36;;;;;;;7.75;3.25;;;;;;;11.43;95.48;102199.59;4875201;29;20695;-84
2022/11/11 10:00:29;;;;;;;5.50;2.35;;;;;;;11.47;95.65;102198.75;4861839;29;20625;-83
2022/11/11 10:03:12;;;;;;;7.97;3.17;;;;;;;11.39;96.32;102208.44;4847154;29;20068;-83
2022/11/11 10:05:54;;;;;;;7.28;3.30;;;;;;;11.36;95.78;102200.50;4841238;29;20081;-83
2022/11/11 10:08:28;;;;;;;8.23;4.40;;;;;;;11.36;96.60;102205.81;4874057;29;20508;-83
2022/11/11 10:10:58;;;;;;;9.45;3.80;;;;;;;11.46;97.73;102207.56;4856226;29;20061;-83
2022/11/11 10:13:33;;;;;;;9.35;4.47;;;;;;;11.41;98.69;102204.03;4835324;29;20414;-83
2022/11/11 10:16:11;;;;;;;9.90;4.75;;;;;;;11.39;99.01;102193.44;4812032;29;20046;-82
2022/11/11 10:18:50;;;;;;;6.95;3.63;;;;;;;11.35;100.00;102198.72;4855134;29;20463;-83
2022/11/11 10:21:23;;;;;;;10.65;4.82;;;;;;;11.38;99.75;102199.63;4857029;29;20113;-83
2022/11/11 10:23:54;;;;;;;8.30;3.90;;;;;;;11.43;99.33;102211.06;4869519;29;20037;-83
2022/11/11 10:26:39;;;;;;;10.85;5.00;;;;;;;11.42;98.81;102201.38;4858957;29;20041;-83
2022/11/11 10:29:18;;;;;;;9.30;4.75;;;;;;;11.42;100.00;102208.44;4842664;29;20074;-81
2022/11/11 10:31:53;;;;;;;9.20;5.20;;;;;;;11.34;100.00;102202.25;4846609;29;20092;-83
2022/11/11 10:34:20;;;;;;;10.25;5.57;;;;;;;11.31;100.00;102204.91;4878916;29;20100;-82
2022/11/11 10:36:53;;;;;;;12.20;6.53;;;;;;;11.26;100.00;102199.59;4862135;29;20108;-83
2022/11/11 10:39:24;;;;;;;12.93;6.28;;;;;;;11.41;100.00;102204.03;4814582;29;20053;-83
2022/11/11 10:41:51;;;;;;;11.85;5.40;;;;;;;11.36;100.00;102193.47;4826682;29;20066;-82
2022/11/11 10:44:20;;;;;;;8.15;4.70;;;;;;;11.43;100.00;102186.38;4829642;29;20495;-82
2022/11/11 10:47:08;;;;;;;10.73;5.40;;;;;;;11.45;100.00;102187.28;4829724;29;20059;-82
2022/11/11 10:49:45;;;;;;;8.25;4.53;;;;;;;11.43;98.93;102184.59;4841073;29;20053;-83
2022/11/11 10:52:17;;;;;;;7.65;3.97;;;;;;;11.33;97.90;102184.63;4871046;29;20486;-83
2022/11/11 10:54:46;;;;;;;5.75;3.42;;;;;;;11.45;98.04;102185.53;4849758;29;20038;-83
2022/11/11 10:57:21;;;;;;;8.73;3.80;;;;;;;11.40;96.30;102181.09;4840080;29;20041;-83
2022/11/11 11:00:04;;;;;;;7.68;4.65;;;;;;;11.47;95.61;102183.75;4855807;29;20139;-82
2022/11/11 11:03:03;;;;;;;8.00;3.80;;;;;;;11.40;93.69;102191.69;4827227;29;20042;-83
2022/11/11 11:05:36;;;;;;;4.93;2.92;;;;;;;11.40;94.04;102189.03;4874276;29;20410;-83
2022/11/11 11:08:07;;;;;;;5.45;3.03;;;;;;;11.56;96.35;102201.38;4875041;29;20093;-82
2022/11/11 11:10:36;;;;;;;9.30;4.25;;;;;;;11.60;95.08;102186.38;4829697;29;20152;-82
2022/11/11 11:13:06;;;;;;;8.60;4.07;;;;;;;11.67;94.91;102188.13;4844782;29;20069;-81
2022/11/11 11:15:38;;;;;;;7.30;4.18;;;;;;;11.72;94.45;102181.09;4811015;29;20049;-82
2022/11/11 11:18:11;;;;;;;5.40;4.20;;;;;;;11.73;94.74;102191.69;4826584;29;20117;-83
2022/11/11 11:20:38;;;;;;;5.60;3.87;;;;;;;11.74;92.56;102187.25;4843511;29;20069;-83
2022/11/11 11:23:04;;;;;;;6.85;4.13;;;;;;;11.75;91.01;102173.13;4841113;29;20045;-82
2022/11/11 11:25:34;;;;;;;7.25;3.78;;;;;;;11.82;92.83;102188.16;4843558;29;20502;-82
2022/11/11 11:28:12;;;;;;;12.57;4.85;;;;;;;11.92;91.70;102179.31;4850433;29;20048;-83
2022/11/11 11:30:39;;;;;;;6.68;3.63;;;;;;;11.86;92.04;102181.13;4850742;29;20045;-82
2022/11/11 11:33:07;;;;;;;7.93;3.65;;;;;;;11.92;91.29;102186.38;4864556;29;20041;-82
2022/11/11 11:35:36;;;;;;;6.85;3.55;;;;;;;11.79;91.47;102183.72;4859999;29;20057;-82
2022/11/11 11:38:05;;;;;;;6.50;3.33;;;;;;;11.77;91.73;102185.50;4860847;29;20057;-82
2022/11/11 11:40:50;;;;;;;7.20;3.53;;;;;;;11.87;90.97;102185.53;4858445;29;20446;-82
2022/11/11 11:43:24;;;;;;;7.50;3.00;;;;;;;11.79;90.34;102185.50;4847710;29;20051;-81
2022/11/11 11:45:56;;;;;;;5.25;3.08;;;;;;;11.82;91.46;102183.75;4865326;29;20041;-82
2022/11/11 11:48:35;;;;;;;8.57;3.03;;;;;;;11.86;90.27;102187.31;4873440;29;20426;-86
2022/11/11 11:51:22;;;;;;;5.15;2.50;;;;;;;11.87;91.46;102186.41;4881556;29;20053;-81
2022/11/11 11:53:55;;;;;;;5.97;2.95;;;;;;;11.70;90.31;102185.50;4876606;29;20045;-82
2022/11/11 11:56:45;;;;;;;3.55;2.58;;;;;;;11.75;90.04;102181.97;4885978;29;20045;-83
2022/11/11 11:59:36;;;;;;;8.68;5.35;;;;;;;11.70;92.23;102189.03;4864012;29;20053;-81
2022/11/11 12:02:40;;;;;;;4.57;2.15;;;;;;;11.76;91.17;102191.66;4848998;29;20502;-82
2022/11/11 12:05:23;;;;;;;3.40;2.50;;;;;;;11.76;91.85;102188.13;4863973;29;20063;-83
2022/11/11 12:08:08;;;;;;;5.30;2.25;;;;;;;11.71;91.11;102181.97;4855506;29;20049;-83
2022/11/11 12:10:53;;;;;;;4.95;2.70;;;;;;;11.67;92.53;102191.66;4850809;29;20049;-82
2022/11/11 12:13:44;;;;;;;7.28;3.13;;;;;;;11.70;89.25;102181.09;4847620;29;20488;-83
2022/11/11 12:16:26;;;;;;;5.47;3.22;;;;;;;11.67;92.61;102183.72;4845466;29;20093;-82
2022/11/11 12:19:26;;;;;;;6.20;3.13;;;;;;;11.71;91.30;102179.34;4845768;29;20058;-83
2022/11/11 12:21:56;;;;;;;5.38;2.53;;;;;;;11.67;90.74;102182.84;4861517;29;20388;-80
2022/11/11 12:24:45;;;;;;;4.25;2.60;;;;;;;11.76;92.36;102186.38;4880069;29;20491;-81
2022/11/11 12:27:20;;;;;;;3.33;1.95;;;;;;;11.74;91.40;102188.13;4854118;29;20117;-80
2022/11/11 12:29:56;;;;;;;4.28;2.35;;;;;;;11.71;91.92;102181.97;4862465;29;20505;-80
2022/11/11 12:32:53;;;;;;;4.28;2.28;;;;;;;11.74;93.76;102187.25;4863467;29;20073;-80
2022/11/11 12:35:35;;;;;;;6.32;2.85;;;;;;;11.76;91.51;102182.84;4863263;29;20109;-80
2022/11/11 12:38:15;;;;;;;6.70;2.70;;;;;;;11.70;91.23;102183.75;4864266;29;20087;-80
2022/11/11 12:41:19;;;;;;;4.00;2.38;;;;;;;11.78;92.22;102192.56;4860155;29;20049;-80
2022/11/11 12:44:04;;;;;;;3.13;2.17;;;;;;;11.70;91.45;102183.75;4847876;29;20038;-81
2022/11/11 12:46:50;;;;;;;3.00;2.00;;;;;;;11.74;91.24;102180.19;4881713;29;20051;-81
2022/11/11 12:49:29;;;;;;;5.15;2.42;;;;;;;11.79;90.94;102178.44;4883645;29;20033;-80
2022/11/11 12:52:15;;;;;;;4.25;2.78;;;;;;;11.76;92.31;102169.59;4880810;29;20112;-81